createdAt,value
2024-01-11T00:01:12.593Z,21.97
2024-01-11T00:03:40.081Z,22.65
2024-01-11T00:06:21.628Z,22.48
2024-01-11T00:08:57.754Z,24.08
2024-01-11T00:11:25.273Z,30.13
2024-01-11T00:13:53.480Z,24.85
2024-01-11T00:16:33.279Z,26.25
2024-01-11T00:19:11.223Z,27.35
2024-01-11T00:21:41.683Z,30.23
2024-01-11T00:24:12.774Z,34.45
2024-01-11T00:29:07.210Z,29.05
2024-01-11T00:31:35.251Z,21.60
2024-01-11T00:34:02.855Z,24.45
2024-01-11T00:36:30.542Z,20.92
2024-01-11T00:38:57.677Z,26.13
2024-01-11T00:41:24.666Z,23.73
2024-01-11T00:43:51.748Z,24.20
2024-01-11T00:46:19.096Z,38.00
2024-01-11T00:48:46.428Z,38.67
2024-01-11T00:51:13.544Z,34.42
2024-01-11T00:53:41.043Z,33.35
2024-01-11T00:56:19.319Z,29.75
2024-01-11T00:58:47.118Z,33.20
2024-01-11T01:01:32.499Z,29.00
2024-01-11T01:04:00.332Z,26.88
2024-01-11T01:06:27.586Z,26.70
2024-01-11T01:08:57.370Z,28.08
2024-01-11T01:11:24.544Z,32.43
2024-01-11T01:13:51.701Z,32.90
2024-01-11T01:16:19.412Z,34.17
2024-01-11T01:18:46.812Z,41.28
2024-01-11T01:21:13.982Z,41.78
2024-01-11T01:23:41.018Z,47.58
2024-01-11T01:26:08.615Z,37.15
2024-01-11T01:28:36.100Z,37.55
2024-01-11T01:31:03.383Z,36.05
2024-01-11T01:33:33.999Z,39.17
2024-01-11T01:38:28.271Z,37.30
2024-01-11T01:40:55.625Z,36.90
2024-01-11T01:43:22.674Z,33.28
2024-01-11T01:45:50.107Z,34.50
2024-01-11T01:48:20.105Z,36.25
2024-01-11T01:50:51.761Z,34.75
2024-01-11T01:53:25.711Z,39.33
2024-01-11T01:55:54.110Z,46.22
2024-01-11T01:58:23.098Z,42.42
2024-01-11T02:00:55.924Z,34.92
2024-01-11T02:03:27.046Z,31.45
2024-01-11T02:05:55.016Z,22.70
2024-01-11T02:08:24.578Z,16.73
2024-01-11T02:10:52.970Z,22.02
2024-01-11T02:13:26.004Z,28.33
2024-01-11T02:15:53.285Z,33.20
2024-01-11T02:18:20.688Z,19.65
2024-01-11T02:20:48.346Z,22.15
2024-01-11T02:23:26.713Z,24.42
2024-01-11T02:25:57.182Z,20.95
2024-01-11T02:28:25.039Z,22.38
2024-01-11T02:30:52.367Z,24.45
2024-01-11T02:33:20.171Z,21.35
2024-01-11T02:35:48.239Z,25.02
2024-01-11T02:38:16.116Z,42.05
2024-01-11T02:43:28.111Z,36.65
2024-01-11T02:46:00.007Z,68.40
2024-01-11T02:48:31.079Z,66.30
2024-01-11T02:51:07.852Z,38.53
2024-01-11T02:53:36.025Z,33.72
2024-01-11T02:56:03.989Z,30.48
2024-01-11T02:58:31.864Z,35.42
2024-01-11T03:00:59.122Z,37.70
2024-01-11T03:03:26.324Z,47.30
2024-01-11T03:05:56.555Z,54.70
2024-01-11T03:08:23.899Z,54.70
2024-01-11T03:11:12.328Z,37.22
2024-01-11T03:13:39.564Z,42.78
2024-01-11T03:16:06.879Z,59.20
2024-01-11T03:18:35.083Z,76.00
2024-01-11T03:21:02.392Z,53.67
2024-01-11T03:23:29.482Z,54.50
2024-01-11T03:25:56.908Z,51.63
2024-01-11T03:28:24.010Z,43.55
2024-01-11T03:30:51.279Z,49.33
2024-01-11T03:33:19.086Z,52.38
2024-01-11T03:35:46.561Z,43.72
2024-01-11T03:38:13.898Z,56.67
2024-01-11T03:40:57.409Z,55.13
2024-01-11T03:44:18.720Z,54.22
2024-01-11T03:46:47.070Z,49.95
2024-01-11T03:49:17.522Z,59.05
2024-01-11T03:51:54.857Z,67.25
2024-01-11T03:54:22.047Z,53.58
2024-01-11T03:56:49.736Z,56.58
2024-01-11T03:59:16.749Z,43.90
2024-01-11T04:01:44.039Z,53.05
2024-01-11T04:04:12.351Z,41.65
2024-01-11T04:06:39.696Z,50.50
2024-01-11T04:09:07.148Z,44.55
2024-01-11T04:11:34.464Z,48.55
2024-01-11T04:14:02.254Z,52.95
2024-01-11T04:16:32.788Z,48.72
2024-01-11T04:19:01.719Z,49.15
2024-01-11T04:21:32.200Z,56.22
2024-01-11T04:23:59.473Z,57.95
2024-01-11T04:26:26.891Z,62.53
2024-01-11T04:28:57.079Z,64.75
2024-01-11T04:31:25.735Z,81.05
2024-01-11T04:33:53.044Z,84.88
2024-01-11T04:36:20.243Z,72.85
2024-01-11T04:38:50.299Z,77.97
2024-01-11T04:41:17.700Z,74.38
2024-01-11T04:43:46.109Z,79.55
2024-01-11T04:46:22.144Z,81.03
2024-01-11T04:48:52.974Z,80.57
2024-01-11T04:51:24.318Z,78.78
2024-01-11T04:53:51.499Z,75.35
2024-01-11T04:56:19.042Z,78.57
2024-01-11T04:58:47.542Z,78.30
2024-01-11T05:01:16.430Z,78.63
2024-01-11T05:03:48.805Z,92.55
2024-01-11T05:06:17.857Z,85.13
2024-01-11T05:08:49.481Z,87.43
2024-01-11T05:11:20.708Z,80.40
2024-01-11T05:13:49.515Z,80.85
2024-01-11T05:16:23.862Z,84.30
2024-01-11T05:18:53.008Z,86.80
2024-01-11T05:21:43.429Z,108.97
2024-01-11T05:26:52.871Z,233.57
2024-01-11T05:29:23.834Z,198.70
2024-01-11T05:31:59.198Z,148.50
2024-01-11T05:34:27.168Z,118.50
2024-01-11T05:38:06.479Z,121.65
2024-01-11T05:40:42.906Z,116.93
2024-01-11T05:43:10.739Z,130.88
2024-01-11T05:45:47.233Z,133.18
2024-01-11T05:48:21.684Z,158.07
2024-01-11T05:50:49.192Z,151.35
2024-01-11T05:53:22.829Z,146.05
2024-01-11T05:55:55.152Z,140.23
2024-01-11T05:58:22.703Z,141.85
2024-01-11T06:00:59.603Z,132.90
2024-01-11T06:03:27.425Z,135.07
2024-01-11T06:12:01.059Z,128.88
2024-01-11T06:14:28.663Z,126.85
2024-01-11T06:16:58.965Z,118.57
2024-01-11T06:19:26.225Z,117.78
2024-01-11T06:21:53.638Z,123.22
2024-01-11T06:24:20.737Z,128.02
2024-01-11T06:26:48.234Z,153.77
2024-01-11T06:29:15.401Z,254.02
2024-01-11T06:31:42.718Z,384.35
2024-01-11T06:34:09.947Z,367.35
2024-01-11T06:36:37.099Z,288.48
2024-01-11T06:39:05.421Z,279.77
2024-01-11T06:41:32.943Z,215.50
2024-01-11T06:44:01.670Z,143.40
2024-01-11T06:46:29.441Z,165.23
2024-01-11T06:48:56.547Z,158.98
2024-01-11T06:51:24.703Z,185.10
2024-01-11T06:53:51.948Z,148.38
2024-01-11T06:56:22.979Z,169.00
2024-01-11T06:58:51.143Z,192.35
2024-01-11T07:01:18.990Z,177.38
2024-01-11T07:03:46.352Z,174.35
2024-01-11T07:06:13.741Z,188.57
2024-01-11T07:08:41.074Z,172.35
2024-01-11T07:11:08.797Z,219.73
2024-01-11T07:13:35.916Z,202.50
2024-01-11T07:16:04.352Z,205.38
2024-01-11T07:18:31.762Z,176.15
2024-01-11T07:21:00.298Z,175.18
2024-01-11T07:23:28.251Z,203.88
2024-01-11T07:25:55.197Z,194.15
2024-01-11T07:28:26.753Z,191.75
2024-01-11T07:30:54.661Z,230.73
2024-01-11T07:33:22.603Z,201.18
2024-01-11T07:35:49.848Z,169.68
2024-01-11T07:38:17.200Z,198.85
2024-01-11T07:40:44.394Z,222.30
2024-01-11T07:43:12.968Z,232.38
2024-01-11T07:45:40.740Z,233.45
2024-01-11T07:48:08.127Z,233.68
2024-01-11T07:50:35.443Z,212.90
2024-01-11T07:53:02.946Z,184.80
2024-01-11T07:55:30.112Z,154.77
2024-01-11T07:57:57.170Z,151.15
2024-01-11T08:00:24.915Z,136.75
2024-01-11T08:02:52.160Z,140.68
2024-01-11T08:05:19.660Z,125.90
2024-01-11T08:07:47.115Z,103.90
2024-01-11T08:10:14.540Z,86.05
2024-01-11T08:12:41.478Z,79.80
2024-01-11T08:15:13.801Z,90.32
2024-01-11T08:17:46.583Z,89.70
2024-01-11T08:20:16.175Z,70.57
2024-01-11T08:22:47.844Z,63.78
2024-01-11T08:25:18.921Z,57.55
2024-01-11T08:30:14.089Z,66.53
2024-01-11T08:32:43.299Z,65.57
2024-01-11T08:35:14.103Z,70.85
2024-01-11T08:40:10.739Z,92.43
2024-01-11T08:42:38.110Z,54.58
2024-01-11T08:45:12.887Z,29.13
2024-01-11T08:47:40.514Z,30.33
2024-01-11T08:50:08.167Z,49.20
2024-01-11T08:52:35.294Z,41.50
2024-01-11T08:55:02.919Z,39.47
2024-01-11T08:57:30.180Z,42.97
2024-01-11T08:59:57.544Z,33.60
2024-01-11T09:02:27.389Z,32.17
2024-01-11T09:04:54.960Z,42.30
2024-01-11T09:07:22.129Z,32.55
2024-01-11T09:09:54.298Z,27.38
2024-01-11T09:12:27.134Z,28.65
2024-01-11T09:14:54.510Z,24.33
2024-01-11T09:17:23.115Z,13.57
2024-01-11T09:19:50.203Z,19.73
2024-01-11T09:22:17.819Z,11.68
2024-01-11T09:24:44.999Z,11.20
2024-01-11T09:27:12.203Z,16.05
2024-01-11T09:29:44.811Z,21.20
2024-01-11T09:32:12.403Z,14.75
2024-01-11T09:34:39.865Z,12.05
2024-01-11T09:37:06.975Z,18.00
2024-01-11T09:39:34.362Z,8.90
2024-01-11T09:42:12.368Z,6.40
2024-01-11T09:44:40.658Z,6.22
2024-01-11T09:47:13.885Z,8.73
2024-01-11T09:49:46.325Z,6.13
2024-01-11T09:52:16.809Z,7.13
2024-01-11T09:54:43.990Z,6.65
2024-01-11T09:57:13.537Z,8.88
2024-01-11T09:59:41.985Z,22.13
2024-01-11T10:02:12.528Z,7.47
2024-01-11T10:04:42.244Z,9.15
2024-01-11T10:07:10.771Z,11.40
2024-01-11T10:09:37.965Z,5.72
2024-01-11T10:12:06.185Z,5.18
2024-01-11T10:14:33.462Z,3.90
2024-01-11T10:17:01.339Z,3.95
2024-01-11T10:19:29.035Z,4.22
2024-01-11T10:21:56.317Z,8.10
2024-01-11T10:24:27.285Z,5.18
2024-01-11T10:29:33.394Z,8.07
2024-01-11T10:32:05.720Z,7.85
2024-01-11T10:34:33.535Z,4.78
2024-01-11T10:37:00.938Z,4.93
2024-01-11T10:39:28.858Z,4.93
2024-01-11T10:42:08.101Z,4.13
2024-01-11T10:44:37.458Z,4.35
2024-01-11T10:47:08.934Z,8.30
2024-01-11T10:49:40.913Z,8.05
2024-01-11T10:52:09.348Z,13.77
2024-01-11T10:54:38.066Z,11.70
2024-01-11T10:57:06.839Z,5.38
2024-01-11T10:59:36.760Z,3.95
2024-01-11T11:02:13.957Z,9.20
2024-01-11T11:04:43.309Z,10.23
2024-01-11T11:07:11.039Z,13.90
2024-01-11T11:09:41.752Z,8.85
2024-01-11T11:12:10.274Z,6.38
2024-01-11T11:14:39.583Z,6.93
2024-01-11T11:17:07.012Z,9.15
2024-01-11T11:19:34.098Z,9.18
2024-01-11T11:22:05.341Z,13.23
2024-01-11T11:24:36.535Z,4.97
2024-01-11T11:29:31.828Z,6.88
2024-01-11T11:32:00.814Z,7.45
2024-01-11T11:34:46.333Z,7.10
2024-01-11T11:37:14.006Z,12.18
2024-01-11T11:40:02.102Z,9.63
2024-01-11T11:42:31.904Z,12.13
2024-01-11T11:45:00.281Z,8.30
2024-01-11T11:47:35.961Z,5.78
2024-01-11T11:50:09.345Z,9.15
2024-01-11T11:52:40.900Z,15.95
2024-01-11T11:55:09.418Z,27.17
2024-01-11T11:57:37.389Z,18.50
2024-01-11T12:00:07.927Z,22.65
2024-01-11T12:02:41.025Z,23.23
2024-01-11T12:05:08.744Z,19.13
2024-01-11T12:07:36.655Z,13.07
2024-01-11T12:10:04.219Z,8.73
2024-01-11T12:12:31.501Z,8.52
2024-01-11T12:15:00.453Z,15.80
2024-01-11T12:17:28.238Z,16.98
2024-01-11T12:19:57.211Z,27.38
2024-01-11T12:22:25.525Z,32.67
2024-01-11T12:24:52.974Z,11.18
2024-01-11T12:27:21.502Z,19.15
2024-01-11T12:29:55.877Z,31.77
2024-01-11T12:32:26.751Z,10.25
2024-01-11T12:34:54.796Z,15.00
2024-01-11T12:37:22.815Z,12.13
2024-01-11T12:39:49.747Z,13.05
2024-01-11T12:42:17.006Z,7.43
2024-01-11T12:44:48.968Z,12.98
2024-01-11T12:47:16.946Z,9.18
2024-01-11T12:49:47.500Z,6.68
2024-01-11T12:52:18.558Z,7.40
2024-01-11T12:54:48.305Z,5.05
2024-01-11T12:57:22.283Z,8.00
2024-01-11T12:59:49.772Z,8.60
2024-01-11T13:02:17.762Z,10.88
2024-01-11T13:04:47.373Z,7.85
2024-01-11T13:07:17.059Z,7.88
2024-01-11T13:09:44.162Z,5.97
2024-01-11T13:12:11.184Z,7.97
2024-01-11T13:14:41.080Z,7.93
2024-01-11T13:17:09.190Z,11.30
2024-01-11T13:19:36.863Z,9.65
2024-01-11T13:22:04.202Z,12.27
2024-01-11T13:24:31.658Z,12.20
2024-01-11T13:26:58.734Z,11.40
2024-01-11T13:29:26.091Z,7.90
2024-01-11T13:31:53.056Z,12.73
2024-01-11T13:34:21.806Z,10.90
2024-01-11T13:36:48.893Z,11.98
2024-01-11T13:39:19.424Z,7.15
2024-01-11T13:41:46.597Z,9.65
2024-01-11T13:44:13.845Z,11.13
2024-01-11T13:46:40.973Z,8.93
2024-01-11T13:49:08.059Z,10.77
2024-01-11T13:51:43.240Z,10.90
2024-01-11T13:54:17.180Z,8.50
2024-01-11T13:56:44.235Z,10.40
2024-01-11T13:59:11.372Z,7.25
2024-01-11T14:01:38.523Z,9.98
2024-01-11T14:04:05.940Z,9.18
2024-01-11T14:06:33.341Z,9.93
2024-01-11T14:09:01.121Z,11.85
2024-01-11T14:11:28.279Z,13.50
2024-01-11T14:13:58.305Z,32.13
2024-01-11T14:16:25.472Z,14.05
2024-01-11T14:18:53.690Z,14.45
2024-01-11T14:21:25.590Z,10.27
2024-01-11T14:23:56.091Z,13.18
2024-01-11T14:26:23.616Z,19.93
2024-01-11T14:28:50.768Z,27.40
2024-01-11T14:31:17.875Z,41.20
2024-01-11T14:33:44.952Z,25.77
2024-01-11T14:36:12.136Z,18.30
2024-01-11T14:38:39.463Z,12.13
2024-01-11T14:41:06.636Z,17.90
2024-01-11T14:43:34.141Z,27.23
2024-01-11T14:46:01.683Z,36.90
2024-01-11T14:48:32.198Z,29.48
2024-01-11T14:50:59.264Z,25.15
2024-01-11T14:53:26.498Z,29.35
2024-01-11T14:55:53.801Z,27.65
2024-01-11T14:58:20.789Z,17.42
2024-01-11T15:00:48.438Z,13.70
2024-01-11T15:03:19.306Z,17.83
2024-01-11T15:05:47.304Z,21.65
2024-01-11T15:08:14.489Z,43.53
2024-01-11T15:10:43.954Z,36.35
2024-01-11T15:13:11.699Z,34.20
2024-01-11T15:15:40.756Z,40.50
2024-01-11T15:18:08.123Z,48.78
2024-01-11T15:20:35.138Z,52.75
2024-01-11T15:23:02.204Z,66.65
2024-01-11T15:25:29.167Z,83.40
2024-01-11T15:27:56.123Z,94.15
2024-01-11T15:30:24.426Z,73.40
2024-01-11T15:32:51.544Z,84.13
2024-01-11T15:35:19.109Z,93.55
2024-01-11T15:37:45.995Z,70.45
2024-01-11T15:40:13.591Z,58.67
2024-01-11T15:42:44.305Z,49.97
2024-01-11T15:45:12.500Z,62.20
2024-01-11T15:47:39.789Z,42.53
2024-01-11T15:50:11.772Z,39.60
2024-01-11T15:52:39.808Z,55.65
2024-01-11T15:55:10.368Z,40.67
2024-01-11T15:57:37.576Z,38.90
2024-01-11T16:00:05.666Z,39.35
2024-01-11T16:02:43.423Z,84.85
2024-01-11T16:05:13.051Z,62.22
2024-01-11T16:07:41.182Z,60.53
2024-01-11T16:10:08.721Z,85.95
2024-01-11T16:12:35.675Z,51.67
2024-01-11T16:15:02.688Z,50.20
2024-01-11T16:17:30.651Z,60.67
2024-01-11T16:19:58.722Z,71.93
2024-01-11T16:22:26.134Z,88.85
2024-01-11T16:24:53.070Z,55.70
2024-01-11T16:27:20.123Z,54.38
2024-01-11T16:29:47.351Z,60.95
2024-01-11T16:32:16.664Z,86.88
2024-01-11T16:34:43.986Z,73.97
2024-01-11T16:37:10.867Z,81.80
2024-01-11T16:39:39.941Z,51.60
2024-01-11T16:42:07.193Z,65.40
2024-01-11T16:44:35.083Z,68.32
2024-01-11T16:47:02.063Z,79.97
2024-01-11T16:49:29.658Z,98.45
2024-01-11T16:51:56.853Z,106.65
2024-01-11T16:54:23.774Z,102.85
2024-01-11T16:56:51.502Z,133.50
2024-01-11T16:59:19.452Z,114.47
2024-01-11T17:01:46.461Z,107.10
2024-01-11T17:04:15.300Z,88.93
2024-01-11T17:06:42.681Z,87.85
2024-01-11T17:09:09.629Z,98.50
2024-01-11T17:11:41.924Z,95.03
2024-01-11T17:14:09.536Z,66.10
2024-01-11T17:16:37.124Z,63.30
2024-01-11T17:19:04.231Z,64.25
2024-01-11T17:21:32.591Z,67.95
2024-01-11T17:23:59.503Z,66.38
2024-01-11T17:26:26.625Z,97.82
2024-01-11T17:28:53.610Z,90.72
2024-01-11T17:31:20.488Z,86.93
2024-01-11T17:33:48.349Z,80.75
2024-01-11T17:36:15.681Z,94.40
2024-01-11T17:38:42.927Z,103.90
2024-01-11T17:41:10.001Z,115.75
2024-01-11T17:43:37.180Z,125.25
2024-01-11T17:46:04.425Z,127.38
2024-01-11T17:48:31.764Z,107.97
2024-01-11T17:50:59.853Z,100.97
2024-01-11T17:53:27.731Z,123.90
2024-01-11T17:56:09.059Z,111.72
2024-01-11T17:58:36.468Z,104.43
2024-01-11T18:01:03.457Z,99.72
2024-01-11T18:03:30.523Z,120.15
2024-01-11T18:05:57.650Z,99.13
2024-01-11T18:08:24.886Z,84.75
2024-01-11T18:10:51.890Z,83.55
2024-01-11T18:13:19.650Z,87.97
2024-01-11T18:15:48.156Z,100.90
2024-01-11T18:18:16.056Z,175.25
2024-01-11T18:20:43.229Z,126.35
2024-01-11T18:23:10.415Z,100.22
2024-01-11T18:25:37.295Z,104.85
2024-01-11T18:28:04.677Z,114.18
2024-01-11T18:30:56.216Z,141.90
2024-01-11T18:33:26.174Z,152.38
2024-01-11T18:35:54.991Z,185.82
2024-01-11T18:38:24.010Z,183.40
2024-01-11T18:40:54.185Z,98.70
2024-01-11T18:43:24.546Z,90.43
2024-01-11T18:45:55.123Z,70.32
2024-01-11T18:48:22.224Z,68.45
2024-01-11T18:50:49.884Z,66.22
2024-01-11T18:53:18.635Z,69.53
2024-01-11T18:55:46.038Z,82.05
2024-01-11T18:58:13.671Z,66.53
2024-01-11T19:00:40.639Z,43.90
2024-01-11T19:03:08.535Z,74.35
2024-01-11T19:05:40.962Z,155.88
2024-01-11T19:08:08.195Z,184.38
2024-01-11T19:10:35.209Z,119.20
2024-01-11T19:13:02.300Z,127.15
2024-01-11T19:15:29.242Z,113.55
2024-01-11T19:17:56.999Z,81.50
2024-01-11T19:20:25.968Z,79.35
2024-01-11T19:22:52.987Z,73.90
2024-01-11T19:25:19.966Z,73.18
2024-01-11T19:28:11.524Z,78.22
2024-01-11T19:30:39.342Z,70.03
2024-01-11T19:33:07.911Z,55.97
2024-01-11T19:35:35.402Z,62.22
2024-01-11T19:38:02.278Z,45.10
2024-01-11T19:52:13.240Z,58.78
2024-01-11T19:54:40.273Z,50.40
2024-01-11T19:57:07.388Z,40.30
2024-01-11T19:59:35.293Z,70.25
2024-01-11T20:02:02.494Z,65.43
2024-01-11T20:04:33.377Z,99.70
2024-01-11T20:09:27.847Z,91.65
2024-01-11T20:11:57.821Z,86.75
2024-01-11T20:14:25.197Z,94.00
2024-01-11T20:16:52.395Z,93.30
2024-01-11T20:19:19.619Z,104.00
2024-01-11T20:21:46.788Z,164.57
2024-01-11T20:24:14.006Z,185.00
2024-01-11T20:26:41.102Z,140.82
2024-01-11T20:29:08.041Z,136.32
2024-01-11T20:31:35.095Z,144.93
2024-01-11T20:34:03.202Z,116.10
2024-01-11T20:36:30.685Z,154.80
2024-01-11T20:38:57.922Z,127.07
2024-01-11T20:41:25.057Z,115.18
2024-01-11T20:43:53.111Z,145.02
2024-01-11T20:46:24.879Z,177.70
2024-01-11T20:48:51.937Z,153.88
2024-01-11T20:51:19.309Z,298.98
2024-01-11T20:53:47.375Z,290.77
2024-01-11T20:56:17.886Z,219.48
2024-01-11T20:58:45.440Z,297.27
2024-01-11T21:01:26.855Z,307.67
2024-01-11T21:03:59.901Z,295.38
2024-01-11T21:06:27.900Z,296.33
2024-01-11T21:08:55.125Z,252.60
2024-01-11T21:11:22.692Z,201.00
2024-01-11T21:13:50.381Z,104.72
2024-01-11T21:16:17.631Z,150.93
2024-01-11T21:18:45.296Z,172.55
2024-01-11T21:21:18.298Z,197.88
2024-01-11T21:23:46.825Z,188.45
2024-01-11T21:26:24.880Z,191.85
2024-01-11T21:28:59.114Z,133.93
2024-01-11T21:34:17.097Z,131.23
2024-01-11T21:36:44.076Z,119.82
2024-01-11T21:39:11.008Z,116.95
2024-01-11T21:41:37.911Z,122.55
2024-01-11T21:44:05.123Z,125.18
2024-01-11T21:46:32.668Z,111.95
2024-01-11T21:48:59.911Z,109.78
2024-01-11T21:51:27.168Z,126.60
2024-01-11T21:53:58.575Z,117.55
2024-01-11T21:56:26.754Z,107.85
2024-01-11T21:58:54.495Z,105.70
2024-01-11T22:01:21.393Z,102.97
2024-01-11T22:03:48.545Z,112.15
2024-01-11T22:06:15.595Z,130.60
2024-01-11T22:08:42.835Z,135.70
2024-01-11T22:11:09.763Z,114.20
2024-01-11T22:13:36.737Z,113.82
2024-01-11T22:16:06.930Z,91.75
2024-01-11T22:18:34.539Z,93.55
2024-01-11T22:21:03.064Z,83.65
2024-01-11T22:23:30.488Z,54.97
2024-01-11T22:25:57.635Z,90.20
2024-01-11T22:28:24.989Z,96.93
2024-01-11T22:30:52.033Z,65.82
2024-01-11T22:33:19.080Z,51.95
2024-01-11T22:35:46.165Z,58.38
2024-01-11T22:38:13.227Z,94.22
2024-01-11T22:40:40.078Z,94.78
2024-01-11T22:43:07.290Z,103.10
2024-01-11T22:45:35.322Z,88.28
2024-01-11T22:48:02.484Z,78.22
2024-01-11T22:50:29.909Z,57.95
2024-01-11T22:52:58.797Z,72.72
2024-01-11T22:55:25.677Z,101.53
2024-01-11T22:57:52.881Z,94.40
2024-01-11T23:00:23.369Z,138.55
2024-01-11T23:02:51.632Z,92.13
2024-01-11T23:05:19.591Z,112.82
2024-01-11T23:07:47.190Z,101.32
2024-01-11T23:10:14.917Z,121.93
2024-01-11T23:12:42.286Z,162.25
2024-01-11T23:15:13.422Z,131.60
2024-01-11T23:17:40.731Z,140.75
2024-01-11T23:20:09.145Z,126.45
2024-01-11T23:22:36.947Z,125.53
2024-01-11T23:25:04.102Z,129.50
2024-01-11T23:27:31.022Z,134.85
2024-01-11T23:29:58.458Z,88.97
2024-01-11T23:32:25.497Z,92.50
2024-01-11T23:34:52.432Z,95.75
2024-01-11T23:37:19.580Z,79.72
2024-01-11T23:39:46.392Z,95.53
2024-01-11T23:42:13.390Z,57.80
2024-01-11T23:44:40.858Z,55.67
2024-01-11T23:47:08.711Z,64.05
2024-01-11T23:49:35.800Z,61.47
2024-01-11T23:52:02.827Z,84.35
2024-01-11T23:54:29.856Z,63.53
2024-01-11T23:56:56.794Z,44.72
2024-01-11T23:59:24.373Z,37.85
